Time;durP1;ratioP1;P1;durP2;ratioP2;P2;SDS_P1;SDS_P2;PMS_P1;PMS_P2;Temp;Humidity;BMP_temperature;BMP_pressure;BME280_temperature;BME280_humidity;BME280_pressure;Samples;Min_cycle;Max_cycle;Signal;HPM_P1;HPM_P2
2021/08/01 00:01:36;;;;;;;0.10;0.10;;;;;;;16.70;71.90;99111.75;4922704;29;20171;-74
2021/08/01 00:04:02;;;;;;;0.10;0.10;;;;;;;16.68;71.95;99102.13;4911282;29;20067;-74
2021/08/01 00:06:28;;;;;;;0.10;0.10;;;;;;;16.69;71.95;99109.25;4914483;29;20057;-73
2021/08/01 00:08:54;;;;;;;0.10;0.10;;;;;;;16.66;72.17;99104.19;4925176;29;20044;-73
2021/08/01 00:11:20;;;;;;;0.10;0.10;;;;;;;16.66;72.19;99112.38;4927682;29;20510;-74
2021/08/01 00:13:46;;;;;;;0.10;0.10;;;;;;;16.63;72.37;99108.16;4907111;29;20055;-74
2021/08/01 00:16:11;;;;;;;0.10;0.10;;;;;;;16.64;72.40;99116.16;4922176;29;20103;-73
2021/08/01 00:18:37;;;;;;;0.10;0.10;;;;;;;16.63;72.44;99111.72;4903074;29;20135;-73
2021/08/01 00:21:04;;;;;;;0.10;0.10;;;;;;;16.62;72.12;99107.31;4909445;29;20189;-74
2021/08/01 00:23:30;;;;;;;0.20;0.20;;;;;;;16.63;72.43;99117.19;4894209;29;20055;-73
2021/08/01 00:25:57;;;;;;;0.10;0.10;;;;;;;16.62;71.93;99120.13;4919617;29;20062;-74
2021/08/01 00:28:23;;;;;;;0.10;0.10;;;;;;;16.60;72.27;99123.06;4886704;29;20562;-72
2021/08/01 00:30:49;;;;;;;0.10;0.10;;;;;;;16.56;72.53;99121.81;4908964;29;20548;-73
2021/08/01 00:33:15;;;;;;;0.10;0.10;;;;;;;16.51;72.68;99113.38;4904691;29;20096;-72
2021/08/01 00:35:43;;;;;;;0.10;0.10;;;;;;;16.48;72.99;99112.94;4887605;29;20501;-72
2021/08/01 00:38:09;;;;;;;0.20;0.20;;;;;;;16.44;73.03;99126.13;4906738;29;20067;-73
2021/08/01 00:40:36;;;;;;;0.10;0.10;;;;;;;16.43;73.08;99121.72;4908567;29;20055;-73
2021/08/01 00:43:02;;;;;;;0.10;0.10;;;;;;;16.43;73.21;99127.19;4904078;29;20100;-73
2021/08/01 00:45:28;;;;;;;0.10;0.10;;;;;;;16.41;73.33;99126.53;4922688;29;20048;-73
2021/08/01 00:47:54;;;;;;;0.10;0.10;;;;;;;16.34;73.54;99123.78;4893703;29;20336;-74
2021/08/01 00:50:20;;;;;;;0.20;0.20;;;;;;;16.37;73.50;99125.25;4910418;29;20434;-73
2021/08/01 00:52:49;;;;;;;0.10;0.10;;;;;;;16.40;73.10;99133.03;4910006;29;20131;-74
2021/08/01 00:55:18;;;;;;;0.17;0.17;;;;;;;16.42;73.29;99130.09;4888080;29;20071;-74
2021/08/01 00:57:44;;;;;;;0.10;0.10;;;;;;;16.40;73.39;99128.41;4884043;29;20227;-73
2021/08/01 01:03:03;;;;;;;0.10;0.10;;;;;;;16.26;73.85;99128.53;4912698;29;20525;-73
2021/08/01 01:05:31;;;;;;;;;;;;;;;16.29;73.73;99131.72;4909434;29;20063;-73
2021/08/01 01:08:15;;;;;;;0.10;0.10;;;;;;;16.33;73.55;99137.63;4902942;29;19927;-73
2021/08/01 01:11:02;;;;;;;0.10;0.10;;;;;;;16.33;73.53;99132.16;4920319;29;20183;-74
2021/08/01 01:13:34;;;;;;;0.10;0.10;;;;;;;16.31;73.68;99129.66;4891972;29;20060;-73
2021/08/01 01:16:00;;;;;;;0.10;0.10;;;;;;;16.30;73.80;99138.00;4877706;29;20354;-73
2021/08/01 01:18:40;;;;;;;0.10;0.10;;;;;;;16.22;74.20;99146.34;4859168;29;20052;-73
2021/08/01 01:21:13;;;;;;;0.10;0.10;;;;;;;16.24;73.99;99147.00;4873949;29;20150;-72
2021/08/01 01:23:45;;;;;;;0.10;0.10;;;;;;;16.26;73.87;99142.19;4899039;29;20079;-73
2021/08/01 01:26:27;;;;;;;0.10;0.10;;;;;;;16.26;73.94;99150.38;4878634;29;20092;-73
2021/08/01 01:29:03;;;;;;;0.10;0.10;;;;;;;16.25;74.12;99157.72;4907527;29;20054;-74
2021/08/01 01:31:44;;;;;;;0.10;0.10;;;;;;;16.22;74.07;99158.09;4905838;29;20067;-74
2021/08/01 01:34:20;;;;;;;0.10;0.10;;;;;;;16.23;74.39;99158.94;4894532;29;20551;-73
2021/08/01 01:36:48;;;;;;;0.10;0.10;;;;;;;16.22;74.17;99157.28;4892451;29;20212;-73
2021/08/01 01:39:15;;;;;;;0.20;0.20;;;;;;;16.21;74.15;99167.34;4901505;29;20048;-72
2021/08/01 01:41:58;;;;;;;0.10;0.10;;;;;;;16.17;74.24;99154.31;4920403;29;20071;-73
2021/08/01 01:44:37;;;;;;;0.20;0.20;;;;;;;16.17;74.32;99157.03;4910764;29;20043;-74
2021/08/01 01:47:03;;;;;;;0.10;0.10;;;;;;;16.19;74.41;99152.22;4893059;29;20052;-73
2021/08/01 01:49:31;;;;;;;0.10;0.10;;;;;;;16.21;74.49;99161.06;4893895;29;20039;-73
2021/08/01 01:51:59;;;;;;;0.10;0.10;;;;;;;16.24;74.19;99160.66;4904458;29;20526;-72
2021/08/01 01:54:25;;;;;;;0.10;0.10;;;;;;;16.27;74.35;99157.50;4905081;29;20398;-73
2021/08/01 01:56:52;;;;;;;0.17;0.17;;;;;;;16.26;74.31;99164.00;4884076;29;20723;-74
2021/08/01 01:59:21;;;;;;;0.10;0.10;;;;;;;16.25;74.37;99165.06;4892882;29;20044;-73
2021/08/01 02:01:46;;;;;;;0.10;0.10;;;;;;;16.23;74.14;99169.84;4920937;29;20146;-73
2021/08/01 02:04:13;;;;;;;0.10;0.10;;;;;;;16.25;74.34;99156.88;4905180;29;20051;-73
2021/08/01 02:06:59;;;;;;;0.20;0.20;;;;;;;16.24;74.29;99160.66;4927303;29;20518;-73
2021/08/01 02:09:43;;;;;;;0.10;0.10;;;;;;;16.24;74.63;99152.47;4912102;29;20135;-73
2021/08/01 02:12:27;;;;;;;0.20;0.20;;;;;;;16.25;74.76;99154.16;4919848;29;20087;-73
2021/08/01 02:15:08;;;;;;;0.10;0.10;;;;;;;16.24;74.77;99155.19;4913560;29;20111;-73
2021/08/01 02:17:50;;;;;;;0.10;0.10;;;;;;;16.20;75.16;99165.66;4910983;29;20055;-73
2021/08/01 02:20:19;;;;;;;0.10;0.10;;;;;;;16.14;75.23;99167.28;4905666;29;20090;-73
2021/08/01 02:23:16;;;;;;;0.10;0.10;;;;;;;16.09;75.32;99158.88;4896535;29;20441;-73
2021/08/01 02:25:43;;;;;;;0.20;0.20;;;;;;;16.08;75.55;99159.91;4891599;29;20074;-72
2021/08/01 02:28:09;;;;;;;0.20;0.20;;;;;;;16.02;75.60;99166.16;4911998;29;20079;-72
2021/08/01 02:30:36;;;;;;;0.20;0.20;;;;;;;15.98;75.71;99162.16;4919251;29;20048;-73
2021/08/01 02:33:04;;;;;;;0.20;0.20;;;;;;;15.97;76.11;99165.91;4927267;29;20575;-73
2021/08/01 02:35:30;;;;;;;0.20;0.20;;;;;;;15.98;76.02;99161.28;4913038;29;20104;-74
2021/08/01 02:37:58;;;;;;;0.17;0.17;;;;;;;15.99;76.21;99163.81;4924496;29;20521;-73
2021/08/01 02:40:37;;;;;;;0.13;0.13;;;;;;;16.11;75.83;99162.22;4881144;29;20055;-73
2021/08/01 02:43:09;;;;;;;0.13;0.13;;;;;;;16.11;75.89;99177.75;4911663;29;20063;-73
2021/08/01 02:45:36;;;;;;;0.10;0.10;;;;;;;16.11;75.97;99184.03;4906066;29;20106;-73
2021/08/01 02:48:05;;;;;;;0.20;0.20;;;;;;;16.13;75.92;99176.53;4891727;29;20327;-73
2021/08/01 02:50:32;;;;;;;0.20;0.20;;;;;;;16.04;76.10;99177.69;4911317;29;20367;-72
2021/08/01 02:53:01;;;;;;;0.10;0.10;;;;;;;16.11;75.62;99184.03;4911701;29;20138;-72
2021/08/01 02:55:32;;;;;;;0.20;0.20;;;;;;;16.24;74.98;99182.47;4907191;29;20051;-73
2021/08/01 02:58:00;;;;;;;0.20;0.20;;;;;;;16.27;75.19;99182.06;4892261;29;20055;-72
2021/08/01 03:00:27;;;;;;;0.20;0.20;;;;;;;16.27;74.77;99182.06;4893711;29;20074;-73
2021/08/01 03:02:55;;;;;;;0.10;0.10;;;;;;;16.33;74.60;99186.72;4892978;29;20123;-72
2021/08/01 03:05:21;;;;;;;0.20;0.20;;;;;;;16.42;74.45;99184.66;4896239;29;20043;-73
2021/08/01 03:07:48;;;;;;;0.15;0.15;;;;;;;16.45;74.48;99187.84;4895304;29;20505;-73
2021/08/01 03:10:15;;;;;;;0.20;0.20;;;;;;;16.60;73.96;99183.13;4907457;29;20040;-74
2021/08/01 03:12:46;;;;;;;0.20;0.20;;;;;;;16.76;73.45;99190.16;4900523;29;20514;-73
2021/08/01 03:15:15;;;;;;;0.20;0.20;;;;;;;17.03;72.46;99182.91;4910390;29;20149;-72
2021/08/01 03:17:41;;;;;;;0.20;0.20;;;;;;;17.21;71.65;99185.06;4859852;29;20059;-73
2021/08/01 03:20:08;;;;;;;0.20;0.20;;;;;;;17.39;70.70;99183.66;4927449;29;20528;-73
2021/08/01 03:22:48;;;;;;;0.20;0.20;;;;;;;17.58;69.85;99197.34;4882552;29;20090;-74
2021/08/01 03:25:15;;;;;;;0.20;0.20;;;;;;;17.68;69.65;99196.09;4927275;29;20043;-74
2021/08/01 03:27:41;;;;;;;0.20;0.20;;;;;;;17.93;68.89;99189.00;4911941;29;20082;-73
2021/08/01 03:30:08;;;;;;;0.20;0.20;;;;;;;17.93;69.04;99193.63;4907372;29;20044;-73
2021/08/01 03:32:34;;;;;;;0.20;0.20;;;;;;;17.95;68.96;99195.13;4910306;29;20066;-74
2021/08/01 03:35:00;;;;;;;0.10;0.10;;;;;;;17.82;69.04;99203.31;4907672;29;20064;-74
2021/08/01 03:37:28;;;;;;;0.10;0.10;;;;;;;17.77;69.06;99192.13;4920264;29;20055;-75
2021/08/01 03:40:13;;;;;;;0.20;0.20;;;;;;;17.85;69.34;99196.59;4911406;29;20048;-75
2021/08/01 03:42:39;;;;;;;0.20;0.20;;;;;;;17.91;69.14;99191.09;4911239;29;20159;-74
2021/08/01 03:45:08;;;;;;;0.20;0.20;;;;;;;18.17;68.70;99195.75;4926178;29;20051;-75
2021/08/01 03:47:35;;;;;;;0.20;0.20;;;;;;;18.42;68.07;99197.81;4911311;29;20394;-74
2021/08/01 03:50:01;;;;;;;0.20;0.20;;;;;;;18.51;67.74;99202.84;4892196;29;20083;-73
2021/08/01 03:52:26;;;;;;;0.20;0.20;;;;;;;18.55;67.51;99206.84;4880971;29;20150;-74
2021/08/01 03:54:52;;;;;;;0.20;0.20;;;;;;;18.61;67.08;99204.28;4904653;29;20059;-74
2021/08/01 03:57:18;;;;;;;0.17;0.17;;;;;;;18.76;66.56;99213.16;4874306;29;20527;-73
2021/08/01 03:59:44;;;;;;;0.20;0.20;;;;;;;18.62;66.97;99208.72;4927926;29;20051;-75
2021/08/01 04:02:09;;;;;;;0.10;0.10;;;;;;;18.56;67.28;99205.78;4908534;29;20151;-73
2021/08/01 04:04:35;;;;;;;0.10;0.10;;;;;;;18.51;66.99;99210.22;4920109;29;20063;-75
2021/08/01 04:07:01;;;;;;;0.10;0.10;;;;;;;18.38;68.20;99215.72;4893589;29;20115;-73
2021/08/01 04:09:27;;;;;;;0.20;0.20;;;;;;;18.36;68.08;99221.41;4890826;29;20617;-73
2021/08/01 04:11:53;;;;;;;0.20;0.20;;;;;;;18.51;67.97;99224.75;4912340;29;20185;-75
2021/08/01 04:14:19;;;;;;;0.20;0.20;;;;;;;18.50;67.97;99227.69;4907805;29;20135;-75
2021/08/01 04:16:45;;;;;;;0.20;0.20;;;;;;;18.52;67.90;99210.00;4910542;29;20925;-75
2021/08/01 04:19:13;;;;;;;0.20;0.20;;;;;;;18.84;67.07;99223.03;4869777;29;20050;-73
2021/08/01 04:21:40;;;;;;;0.20;0.20;;;;;;;19.07;66.71;99228.00;4908954;29;20062;-74
2021/08/01 04:24:06;;;;;;;0.20;0.20;;;;;;;19.15;65.98;99219.53;4910456;29;20057;-73
2021/08/01 04:26:32;;;;;;;0.30;0.30;;;;;;;19.53;64.94;99211.34;4923151;29;20424;-74
2021/08/01 04:28:58;;;;;;;0.30;0.30;;;;;;;19.45;64.49;99214.31;4901358;29;20071;-80
2021/08/01 04:31:24;;;;;;;0.20;0.20;;;;;;;19.52;64.61;99221.47;4896384;29;20090;-75
2021/08/01 04:33:50;;;;;;;0.20;0.20;;;;;;;19.71;64.21;99213.38;4923604;29;20490;-74
2021/08/01 04:36:16;;;;;;;0.20;0.20;;;;;;;19.79;64.34;99215.84;4904786;29;20143;-75
2021/08/01 04:38:42;;;;;;;0.20;0.20;;;;;;;19.88;63.62;99208.16;4903828;29;20135;-75
2021/08/01 04:41:08;;;;;;;0.30;0.30;;;;;;;20.02;63.30;99208.91;4890727;29;20055;-77
2021/08/01 04:43:34;;;;;;;0.20;0.20;;;;;;;20.35;62.53;99214.09;4907814;29;20059;-74
2021/08/01 04:46:00;;;;;;;0.28;0.28;;;;;;;20.15;62.73;99214.28;4919747;29;20722;-75
2021/08/01 04:48:26;;;;;;;0.20;0.20;;;;;;;20.34;62.12;99218.75;4892618;29;20062;-74
2021/08/01 04:50:52;;;;;;;0.20;0.20;;;;;;;20.17;62.86;99218.47;4924851;29;20052;-75
2021/08/01 04:53:24;;;;;;;0.30;0.30;;;;;;;20.32;62.83;99209.06;4927208;29;20142;-75
2021/08/01 04:55:50;;;;;;;0.30;0.30;;;;;;;20.48;62.30;99203.84;4905664;29;20337;-74
2021/08/01 04:58:16;;;;;;;0.30;0.30;;;;;;;20.73;61.28;99204.88;4889898;29;20052;-74
2021/08/01 05:00:42;;;;;;;0.20;0.20;;;;;;;21.09;60.56;99202.13;4915525;29;20047;-75
2021/08/01 05:03:08;;;;;;;0.30;0.30;;;;;;;21.46;59.75;99209.50;4927368;29;20056;-78
2021/08/01 05:05:39;;;;;;;0.40;0.40;;;;;;;21.48;59.37;99201.88;4896203;29;20044;-76
2021/08/01 05:08:06;;;;;;;0.30;0.30;;;;;;;21.75;58.48;99214.16;4905959;29;20611;-75
2021/08/01 05:10:32;;;;;;;0.40;0.40;;;;;;;21.69;58.20;99209.59;4881248;29;20044;-77
2021/08/01 05:12:58;;;;;;;0.30;0.30;;;;;;;21.79;58.03;99193.38;4887167;29;20575;-76
2021/08/01 05:15:24;;;;;;;0.20;0.20;;;;;;;21.88;57.25;99202.09;4906067;29;20134;-76
2021/08/01 05:17:50;;;;;;;0.20;0.20;;;;;;;21.48;59.08;99207.38;4889451;29;20056;-75
2021/08/01 05:20:16;;;;;;;0.20;0.20;;;;;;;21.67;58.57;99206.22;4884940;29;20084;-75
2021/08/01 05:22:42;;;;;;;0.20;0.20;;;;;;;22.00;57.49;99202.13;4888894;29;20079;-74
2021/08/01 05:25:08;;;;;;;0.20;0.20;;;;;;;21.92;57.69;99204.16;4884433;29;20086;-77
2021/08/01 05:27:34;;;;;;;0.40;0.40;;;;;;;22.30;56.87;99193.81;4886236;29;20403;-74
2021/08/01 05:30:00;;;;;;;0.50;0.50;;;;;;;23.14;54.76;99202.59;4906493;29;20124;-75
2021/08/01 05:32:26;;;;;;;0.40;0.40;;;;;;;23.72;52.74;99190.53;4907149;29;20115;-76
2021/08/01 05:34:52;;;;;;;0.40;0.40;;;;;;;23.81;51.71;99197.31;4890894;29;20143;-76
2021/08/01 05:37:18;;;;;;;0.40;0.40;;;;;;;23.81;52.40;99210.28;4891647;29;20048;-76
2021/08/01 05:39:43;;;;;;;0.38;0.38;;;;;;;23.89;51.81;99206.28;4888350;29;20542;-74
2021/08/01 05:42:09;;;;;;;0.40;0.40;;;;;;;24.26;51.59;99201.94;4890828;29;20052;-77
2021/08/01 05:44:35;;;;;;;0.43;0.43;;;;;;;24.05;52.18;99205.44;4879622;29;20342;-76
2021/08/01 05:47:06;;;;;;;0.40;0.40;;;;;;;24.03;51.30;99213.16;4912011;29;21044;-77
2021/08/01 05:49:35;;;;;;;0.50;0.50;;;;;;;24.60;50.19;99210.22;4878141;29;20529;-76
2021/08/01 05:52:02;;;;;;;0.57;0.57;;;;;;;24.57;49.85;99219.03;4892342;29;20079;-77
2021/08/01 05:54:32;;;;;;;0.40;0.40;;;;;;;24.65;49.79;99204.78;4911598;29;20130;-79
2021/08/01 05:57:00;;;;;;;0.30;0.30;;;;;;;24.46;50.73;99215.28;4890654;29;20083;-78
2021/08/01 05:59:26;;;;;;;0.60;0.60;;;;;;;25.07;49.39;99209.78;4881601;29;20387;-75
2021/08/01 06:01:52;;;;;;;0.60;0.60;;;;;;;25.24;48.70;99207.81;4912333;29;20056;-75
2021/08/01 06:04:18;;;;;;;0.50;0.50;;;;;;;25.89;47.50;99208.00;4893358;29;20130;-78
2021/08/01 06:06:43;;;;;;;0.68;0.68;;;;;;;26.37;45.67;99226.44;4894932;29;20052;-76
2021/08/01 06:09:09;;;;;;;0.55;0.55;;;;;;;26.59;45.17;99223.59;4921615;29;20051;-77
2021/08/01 06:11:35;;;;;;;0.70;0.70;;;;;;;26.64;45.04;99229.16;4924701;29;20055;-76
2021/08/01 06:14:01;;;;;;;0.80;0.80;;;;;;;26.47;45.39;99231.22;4925720;29;20405;-79
2021/08/01 06:16:27;;;;;;;0.70;0.70;;;;;;;27.09;44.27;99232.47;4925927;29;20043;-80
2021/08/01 06:18:53;;;;;;;0.50;0.50;;;;;;;27.03;43.83;99228.00;4926022;29;20090;-78
2021/08/01 06:21:20;;;;;;;0.50;0.50;;;;;;;27.41;43.03;99224.84;4885216;29;20079;-76
2021/08/01 06:23:50;;;;;;;0.50;0.50;;;;;;;27.29;42.92;99232.59;4900621;29;20060;-77
2021/08/01 06:26:18;;;;;;;0.60;0.60;;;;;;;27.85;41.93;99234.72;4891461;29;20123;-78
2021/08/01 06:28:47;;;;;;;0.40;0.40;;;;;;;28.66;40.55;99233.13;4912500;29;20065;-78
2021/08/01 06:31:13;;;;;;;0.40;0.40;;;;;;;27.70;40.69;99226.34;4929535;29;20572;-78
2021/08/01 06:33:39;;;;;;;0.35;0.35;;;;;;;27.23;41.91;99221.75;4891279;29;20051;-77
2021/08/01 06:36:06;;;;;;;0.50;0.50;;;;;;;27.77;41.28;99226.94;4909004;29;20055;-78
2021/08/01 06:38:32;;;;;;;0.50;0.50;;;;;;;28.17;40.38;99217.00;4928827;29;20147;-79
2021/08/01 06:40:58;;;;;;;0.30;0.30;;;;;;;27.59;41.11;99209.66;4914763;29;20067;-76
2021/08/01 06:43:24;;;;;;;0.30;0.30;;;;;;;27.83;40.21;99211.97;4915620;29;20044;-78
2021/08/01 06:45:50;;;;;;;0.30;0.30;;;;;;;27.81;40.06;99211.41;4913045;29;20079;-76
2021/08/01 06:48:16;;;;;;;0.40;0.40;;;;;;;28.20;39.50;99213.66;4922602;29;20070;-78
2021/08/01 06:50:41;;;;;;;0.50;0.50;;;;;;;29.04;38.43;99206.63;4924879;29;20044;-77
2021/08/01 06:53:07;;;;;;;0.50;0.50;;;;;;;29.66;37.40;99198.84;4910182;29;20510;-76
2021/08/01 06:55:33;;;;;;;0.30;0.30;;;;;;;29.10;37.20;99210.22;4930874;29;20443;-77
2021/08/01 06:57:59;;;;;;;0.52;0.52;;;;;;;28.71;36.94;99210.88;4894089;29;20581;-78
2021/08/01 07:00:25;;;;;;;0.60;0.60;;;;;;;28.68;37.00;99214.22;4928571;29;20104;-79
2021/08/01 07:02:52;;;;;;;0.70;0.70;;;;;;;30.32;34.32;99214.28;4913068;29;20173;-77
2021/08/01 07:05:18;;;;;;;0.40;0.40;;;;;;;30.16;34.18;99196.81;4924965;29;20151;-78
2021/08/01 07:07:47;;;;;;;0.30;0.30;;;;;;;28.68;35.88;99208.66;4928057;29;20060;-78
2021/08/01 07:10:13;;;;;;;0.30;0.30;;;;;;;28.65;36.54;99204.47;4928319;29;20663;-77
2021/08/01 07:12:41;;;;;;;0.20;0.20;;;;;;;28.59;36.95;99200.88;4925421;29;20044;-78
2021/08/01 07:15:12;;;;;;;0.30;0.30;;;;;;;28.35;36.65;99199.75;4905108;29;20126;-75
2021/08/01 07:17:39;;;;;;;0.20;0.20;;;;;;;28.32;37.36;99211.44;4922992;29;20083;-75
2021/08/01 07:20:09;;;;;;;0.20;0.20;;;;;;;28.30;37.45;99196.97;4910839;29;20471;-77
2021/08/01 07:22:35;;;;;;;0.30;0.30;;;;;;;28.35;37.30;99195.03;4923046;29;20079;-79
2021/08/01 07:25:03;;;;;;;0.20;0.20;;;;;;;27.99;37.53;99202.53;4895283;29;20107;-76
2021/08/01 07:27:29;;;;;;;0.30;0.30;;;;;;;28.10;37.42;99197.81;4909653;29;20086;-77
2021/08/01 07:29:55;;;;;;;0.30;0.30;;;;;;;28.25;36.92;99195.03;4890165;29;20045;-77
2021/08/01 07:32:21;;;;;;;0.30;0.30;;;;;;;27.70;36.99;99198.56;4913541;29;20542;-78
2021/08/01 07:34:48;;;;;;;0.30;0.30;;;;;;;28.19;36.38;99198.06;4886499;29;20079;-76
2021/08/01 07:37:14;;;;;;;0.30;0.30;;;;;;;28.05;35.95;99195.88;4893006;29;20052;-78
2021/08/01 07:39:40;;;;;;;0.20;0.20;;;;;;;27.50;37.69;99196.59;4912992;29;20525;-77
2021/08/01 07:42:06;;;;;;;0.17;0.17;;;;;;;27.32;38.91;99195.13;4899038;29;20067;-77
2021/08/01 07:44:36;;;;;;;0.10;0.10;;;;;;;27.13;39.32;99195.63;4904485;29;20189;-77
2021/08/01 07:47:02;;;;;;;0.10;0.10;;;;;;;27.11;38.89;99200.59;4901868;29;20057;-77
2021/08/01 07:49:28;;;;;;;0.10;0.10;;;;;;;26.86;39.49;99190.19;4899121;29;20084;-79
2021/08/01 07:51:53;;;;;;;0.10;0.10;;;;;;;26.74;39.98;99189.56;4884792;29;20111;-78
2021/08/01 07:54:19;;;;;;;0.10;0.10;;;;;;;26.90;39.54;99184.91;4884174;29;20044;-79
2021/08/01 07:56:45;;;;;;;0.10;0.10;;;;;;;26.67;40.73;99194.50;4882703;29;20055;-77
2021/08/01 07:59:11;;;;;;;0.10;0.10;;;;;;;26.38;40.46;99188.47;4868896;29;20489;-77
2021/08/01 08:01:36;;;;;;;0.10;0.10;;;;;;;26.12;42.07;99191.03;4899600;29;20048;-80
2021/08/01 08:04:02;;;;;;;0.10;0.10;;;;;;;26.06;41.76;99197.63;4899467;29;20061;-77
2021/08/01 08:06:28;;;;;;;0.10;0.10;;;;;;;26.07;42.15;99192.91;4902183;29;20053;-80
2021/08/01 08:08:54;;;;;;;0.10;0.10;;;;;;;25.80;42.25;99193.78;4902064;29;20059;-79
2021/08/01 08:11:19;;;;;;;0.10;0.10;;;;;;;25.57;43.01;99194.91;4893318;29;20100;-78
2021/08/01 08:13:45;;;;;;;0.10;0.10;;;;;;;25.43;42.73;99201.94;4914585;29;20075;-78
2021/08/01 08:16:11;;;;;;;0.10;0.10;;;;;;;25.43;42.65;99205.53;4911694;29;20064;-78
2021/08/01 08:18:37;;;;;;;0.10;0.10;;;;;;;25.39;43.58;99200.81;4906463;29;20144;-78
2021/08/01 08:21:02;;;;;;;0.10;0.10;;;;;;;25.47;43.10;99205.88;4909488;29;20052;-78
2021/08/01 08:23:29;;;;;;;0.10;0.10;;;;;;;25.26;43.88;99216.69;4879960;29;20155;-78
2021/08/01 08:25:55;;;;;;;0.10;0.10;;;;;;;25.43;43.97;99219.38;4895272;29;20795;-78
2021/08/01 08:28:20;;;;;;;0.15;0.15;;;;;;;25.45;43.73;99219.16;4891258;29;20274;-78
2021/08/01 08:30:46;;;;;;;0.10;0.10;;;;;;;25.67;44.13;99222.72;4896561;29;20418;-78
2021/08/01 08:33:12;;;;;;;0.10;0.10;;;;;;;25.92;43.75;99224.09;4912396;29;20525;-77
2021/08/01 08:35:40;;;;;;;0.10;0.10;;;;;;;25.77;43.37;99221.13;4910023;29;20114;-79
2021/08/01 08:38:06;;;;;;;0.10;0.10;;;;;;;25.70;43.54;99216.63;4865356;29;20052;-79
2021/08/01 08:40:36;;;;;;;0.10;0.10;;;;;;;25.74;43.60;99223.34;4883055;29;20510;-78
2021/08/01 08:43:03;;;;;;;0.20;0.20;;;;;;;25.81;42.97;99217.59;4896580;29;20085;-78
2021/08/01 08:45:30;;;;;;;0.10;0.10;;;;;;;25.81;43.70;99216.78;4911244;29;20525;-78
2021/08/01 08:47:56;;;;;;;0.20;0.20;;;;;;;25.73;43.05;99220.81;4860258;29;20056;-76
2021/08/01 08:50:22;;;;;;;0.20;0.20;;;;;;;25.66;42.68;99220.19;4895111;29;20067;-78
2021/08/01 08:52:51;;;;;;;0.20;0.20;;;;;;;25.65;42.70;99205.50;4892626;29;20060;-78
2021/08/01 08:55:17;;;;;;;0.20;0.20;;;;;;;25.70;43.07;99205.56;4906092;29;20056;-78
2021/08/01 08:57:50;;;;;;;0.20;0.20;;;;;;;25.80;43.25;99209.56;4886876;29;20045;-78
2021/08/01 09:00:34;;;;;;;0.20;0.20;;;;;;;25.84;43.41;99199.63;4909230;29;20051;-77
2021/08/01 09:03:00;;;;;;;0.10;0.10;;;;;;;26.08;43.54;99200.97;4904898;29;20218;-77
2021/08/01 09:05:27;;;;;;;0.10;0.10;;;;;;;25.85;43.87;99195.75;4911861;29;20174;-77
2021/08/01 09:07:52;;;;;;;0.20;0.20;;;;;;;25.96;43.08;99191.97;4897480;29;20739;-79
2021/08/01 09:10:18;;;;;;;0.13;0.13;;;;;;;25.86;42.35;99189.97;4892548;29;20106;-76
2021/08/01 09:12:44;;;;;;;0.10;0.10;;;;;;;25.85;43.39;99195.75;4896034;29;20447;-78
2021/08/01 09:15:11;;;;;;;0.20;0.20;;;;;;;25.95;43.31;99193.09;4887997;29;20153;-78
2021/08/01 09:17:38;;;;;;;0.20;0.20;;;;;;;25.97;43.51;99197.28;4880963;29;20102;-79
2021/08/01 09:20:27;;;;;;;0.10;0.10;;;;;;;25.76;44.40;99194.53;4925483;29;20056;-80
2021/08/01 09:22:59;;;;;;;0.10;0.10;;;;;;;25.55;45.25;99196.25;4922231;29;20118;-79
2021/08/01 09:25:53;;;;;;;0.10;0.10;;;;;;;25.79;45.21;99191.28;4915937;29;20200;-81
2021/08/01 09:28:21;;;;;;;0.20;0.20;;;;;;;25.67;45.06;99195.03;4888354;29;20562;-80
2021/08/01 09:30:50;;;;;;;0.20;0.20;;;;;;;25.84;45.44;99200.47;4906974;29;20064;-81
2021/08/01 09:33:35;;;;;;;0.10;0.10;;;;;;;25.42;45.56;99192.81;4876388;29;20052;-79
2021/08/01 09:36:11;;;;;;;0.10;0.10;;;;;;;25.17;46.46;99218.25;4915034;29;20052;-79
2021/08/01 09:38:47;;;;;;;0.10;0.10;;;;;;;25.02;47.38;99226.31;4908004;29;20079;-79
2021/08/01 09:41:17;;;;;;;0.10;0.10;;;;;;;25.02;47.99;99223.56;4903897;29;20052;-80
2021/08/01 09:43:55;;;;;;;0.10;0.10;;;;;;;24.99;48.30;99222.13;4923847;29;20428;-79
2021/08/01 09:46:35;;;;;;;0.20;0.20;;;;;;;25.20;48.20;99227.97;4923158;29;20063;-78
2021/08/01 09:49:18;;;;;;;0.10;0.10;;;;;;;25.14;48.04;99235.34;4889452;29;22078;-78
2021/08/01 09:51:45;;;;;;;;;;;;;;;24.94;48.46;99235.06;4921132;29;20568;-78
2021/08/01 09:54:12;;;;;;;0.10;0.10;;;;;;;24.90;48.51;99247.69;4925726;29;20384;-78
2021/08/01 09:56:38;;;;;;;0.10;0.10;;;;;;;25.01;49.02;99246.75;4926688;29;20142;-80
2021/08/01 09:59:17;;;;;;;0.10;0.10;;;;;;;24.96;48.38;99243.94;4895042;29;20047;-81
2021/08/01 10:01:48;;;;;;;0.10;0.10;;;;;;;24.80;49.31;99258.63;4906849;29;20108;-79
2021/08/01 10:04:23;;;;;;;0.10;0.10;;;;;;;24.85;48.94;99254.00;4910889;29;20513;-79
2021/08/01 10:07:07;;;;;;;0.15;0.15;;;;;;;24.97;48.33;99267.72;4901796;29;20056;-79
2021/08/01 10:09:35;;;;;;;0.10;0.10;;;;;;;24.86;48.35;99274.19;4922641;29;20095;-80
2021/08/01 10:12:01;;;;;;;0.10;0.10;;;;;;;25.03;48.35;99261.19;4875877;29;20486;-82
2021/08/01 10:14:28;;;;;;;0.10;0.10;;;;;;;25.00;48.89;99261.69;4892819;29;20135;-79
2021/08/01 10:16:54;;;;;;;0.10;0.10;;;;;;;24.99;48.80;99268.31;4923837;29;20392;-80
2021/08/01 10:19:20;;;;;;;0.10;0.10;;;;;;;24.80;49.57;99278.00;4910716;29;20045;-79
2021/08/01 10:21:51;;;;;;;0.10;0.10;;;;;;;24.99;49.50;99260.03;4908299;29;20570;-80
2021/08/01 10:24:31;;;;;;;0.10;0.10;;;;;;;24.98;49.56;99263.88;4892652;29;20048;-79
2021/08/01 10:27:05;;;;;;;0.10;0.10;;;;;;;25.07;49.72;99262.34;4884496;29;20078;-80
2021/08/01 10:29:45;;;;;;;0.10;0.10;;;;;;;24.92;50.16;99259.34;4901087;29;20059;-79
2021/08/01 10:32:12;;;;;;;0.20;0.20;;;;;;;24.94;50.58;99241.44;4917619;29;20498;-80
2021/08/01 10:35:01;;;;;;;0.10;0.10;;;;;;;24.80;51.67;99239.28;4928942;29;20196;-80
2021/08/01 10:37:31;;;;;;;0.10;0.10;;;;;;;25.02;51.34;99234.63;4930624;29;20052;-79
2021/08/01 10:39:58;;;;;;;0.13;0.13;;;;;;;24.65;52.76;99232.44;4931804;29;20063;-78
2021/08/01 10:42:25;;;;;;;0.10;0.10;;;;;;;24.63;52.74;99237.38;4907658;29;20150;-79
2021/08/01 10:44:53;;;;;;;0.10;0.10;;;;;;;24.43;53.39;99229.63;4914159;29;20063;-80
2021/08/01 10:47:19;;;;;;;0.10;0.10;;;;;;;24.39;54.07;99205.44;4892186;29;20080;-76
2021/08/01 10:49:49;;;;;;;0.10;0.10;;;;;;;24.49;53.35;99200.13;4913474;29;20082;-79
2021/08/01 10:52:17;;;;;;;0.10;0.10;;;;;;;24.48;53.87;99203.97;4892218;29;20083;-78
2021/08/01 10:54:56;;;;;;;0.10;0.10;;;;;;;24.26;54.99;99199.19;4925993;29;20043;-79
2021/08/01 10:57:23;;;;;;;0.20;0.10;;;;;;;24.24;55.68;99193.09;4920110;29;20195;-79
2021/08/01 10:59:49;;;;;;;0.10;0.10;;;;;;;24.26;55.53;99179.00;4911539;29;20058;-78
2021/08/01 11:02:22;;;;;;;0.10;0.10;;;;;;;24.27;55.60;99158.56;4913806;29;20386;-81
2021/08/01 11:04:50;;;;;;;0.10;0.10;;;;;;;24.40;57.40;99146.38;4930066;29;20102;-79
2021/08/01 11:07:28;;;;;;;0.10;0.10;;;;;;;24.40;55.89;99138.94;4923980;29;20082;-82
2021/08/01 11:10:06;;;;;;;0.10;0.10;;;;;;;24.36;56.60;99136.91;4929049;29;20123;-79
2021/08/01 11:12:42;;;;;;;0.10;0.10;;;;;;;23.93;56.75;99141.19;4906398;29;20128;-79
2021/08/01 11:15:15;;;;;;;0.10;0.10;;;;;;;23.93;57.98;99138.44;4910236;29;20052;-79
2021/08/01 11:17:40;;;;;;;0.10;0.10;;;;;;;23.80;58.79;99143.22;4907649;29;20051;-79
2021/08/01 11:20:15;;;;;;;0.10;0.10;;;;;;;23.71;58.89;99155.72;4910516;29;20051;-78
2021/08/01 11:22:44;;;;;;;0.10;0.10;;;;;;;23.65;58.39;99148.41;4902283;29;20147;-78
2021/08/01 11:25:20;;;;;;;0.10;0.10;;;;;;;23.85;58.20;99144.38;4929417;29;20059;-77
2021/08/01 11:28:07;;;;;;;0.32;0.10;;;;;;;23.85;58.58;99145.22;4902856;29;20502;-78
2021/08/01 11:30:58;;;;;;;0.10;0.10;;;;;;;23.71;58.65;99152.97;4903624;29;20050;-79
2021/08/01 11:33:41;;;;;;;0.10;0.10;;;;;;;23.55;58.77;99153.78;4927914;29;20143;-80
2021/08/01 11:36:12;;;;;;;0.10;0.10;;;;;;;23.60;59.40;99153.84;4928182;29;20051;-78
2021/08/01 11:38:56;;;;;;;0.10;0.10;;;;;;;23.57;59.48;99157.94;4922871;29;20064;-80
2021/08/01 11:41:40;;;;;;;0.10;0.10;;;;;;;23.48;59.75;99166.88;4910277;29;20060;-76
2021/08/01 11:44:08;;;;;;;0.10;0.10;;;;;;;23.31;60.23;99170.41;4929992;29;20051;-77
2021/08/01 11:46:46;;;;;;;0.10;0.10;;;;;;;23.22;60.95;99180.19;4933014;29;20052;-79